Time;durP1;ratioP1;P1;durP2;ratioP2;P2;SDS_P1;SDS_P2;PMS_P1;PMS_P2;Temp;Humidity;BMP_temperature;BMP_pressure;BME280_temperature;BME280_humidity;BME280_pressure;Samples;Min_cycle;Max_cycle;Signal;HPM_P1;HPM_P2
2022/06/24 00:01:26;;;;;;;11.52;5.00;;;;;;;21.09;65.88;92328.81;2044395;70;20180;-73
2022/06/24 00:03:52;;;;;;;13.15;4.78;;;;;;;21.12;64.98;92330.31;2046029;70;20220;-73
2022/06/24 00:06:46;;;;;;;16.05;4.93;;;;;;;20.95;65.98;92335.03;2048722;70;20529;-77
2022/06/24 00:09:13;;;;;;;14.45;4.90;;;;;;;20.94;65.43;92338.59;2048469;70;20162;-75
2022/06/24 00:11:43;;;;;;;11.30;4.63;;;;;;;20.86;65.84;92339.19;2042291;70;20143;-74
2022/06/24 00:14:15;;;;;;;12.10;4.75;;;;;;;20.92;64.96;92335.69;2041828;70;20165;-73
2022/06/24 00:17:02;;;;;;;14.30;4.40;;;;;;;20.64;66.51;92339.50;2041548;70;20136;-73
2022/06/24 00:19:30;;;;;;;16.27;4.80;;;;;;;20.86;65.11;92355.63;2041780;70;20604;-74
2022/06/24 00:22:14;;;;;;;16.83;5.10;;;;;;;20.80;66.26;92365.56;2041514;70;20151;-72
2022/06/24 00:24:40;;;;;;;15.32;5.78;;;;;;;20.78;66.34;92367.66;2042040;70;20194;-76
2022/06/24 00:27:25;;;;;;;14.00;5.20;;;;;;;20.78;65.96;92373.38;2041539;69;20151;-73
2022/06/24 00:29:51;;;;;;;16.80;5.30;;;;;;;20.74;66.45;92370.44;2040437;70;20143;-76
2022/06/24 00:32:30;;;;;;;15.13;5.10;;;;;;;20.56;67.00;92362.97;2041380;70;20166;-75
2022/06/24 00:35:12;;;;;;;14.07;5.47;;;;;;;20.73;66.20;92361.13;2057317;69;20234;-72
2022/06/24 00:37:40;;;;;;;17.55;5.55;;;;;;;20.68;66.24;92358.88;2041998;70;20640;-73
2022/06/24 00:40:09;;;;;;;18.17;5.25;;;;;;;20.61;67.14;92355.19;2041439;70;20159;-74
2022/06/24 00:42:40;;;;;;;14.55;6.03;;;;;;;20.46;68.12;92350.59;2041792;70;20202;-74
2022/06/24 00:45:27;;;;;;;9.32;4.40;;;;;;;20.68;66.15;92353.16;2040722;70;20262;-74
2022/06/24 00:47:55;;;;;;;16.27;5.10;;;;;;;20.50;67.84;92348.56;2041705;70;20159;-74
2022/06/24 00:50:32;;;;;;;11.93;4.55;;;;;;;20.50;67.67;92342.84;2041339;70;20163;-74
2022/06/24 00:53:00;;;;;;;14.95;5.28;;;;;;;20.47;67.52;92340.59;2041175;70;20174;-74
2022/06/24 00:55:30;;;;;;;16.67;4.63;;;;;;;20.56;66.31;92345.09;2041663;70;20609;-73
2022/06/24 00:57:57;;;;;;;10.82;4.35;;;;;;;20.47;66.62;92341.34;2041490;70;20544;-73
2022/06/24 01:00:25;;;;;;;15.65;4.75;;;;;;;20.30;67.91;92348.88;2040206;70;20636;-74
2022/06/24 01:02:57;;;;;;;12.30;4.57;;;;;;;20.45;67.30;92354.88;2041401;70;20143;-72
2022/06/24 01:05:23;;;;;;;16.67;4.82;;;;;;;20.41;67.49;92363.38;2041399;70;20687;-73
2022/06/24 01:07:49;;;;;;;14.38;4.40;;;;;;;20.36;67.59;92362.56;2041709;70;20238;-74
2022/06/24 01:10:14;;;;;;;16.45;4.45;;;;;;;20.35;67.73;92363.25;2042883;70;20717;-74
2022/06/24 01:12:40;;;;;;;16.10;4.70;;;;;;;20.39;67.61;92372.63;2048467;70;20147;-74
2022/06/24 01:15:06;;;;;;;12.45;5.45;;;;;;;20.38;67.87;92368.31;2047910;70;20159;-75
2022/06/24 01:17:37;;;;;;;11.65;4.70;;;;;;;20.48;66.68;92364.94;2044319;70;20166;-73
2022/06/24 01:20:12;;;;;;;11.57;4.80;;;;;;;20.48;66.93;92374.28;2049236;70;20333;-73
2022/06/24 01:22:40;;;;;;;11.38;4.55;;;;;;;20.43;67.42;92372.69;2049257;70;20151;-74
2022/06/24 01:25:07;;;;;;;9.80;4.45;;;;;;;20.56;65.71;92368.69;2048910;70;20162;-74
2022/06/24 01:27:33;;;;;;;15.98;4.30;;;;;;;20.52;67.66;92360.03;2048919;70;20183;-71
2022/06/24 01:29:59;;;;;;;15.52;5.00;;;;;;;20.16;68.26;92362.91;2049190;70;20162;-72
2022/06/24 01:32:25;;;;;;;13.85;6.00;;;;;;;19.99;68.78;92358.97;2049146;70;20166;-72
2022/06/24 01:34:51;;;;;;;12.45;5.75;;;;;;;20.30;67.20;92353.88;2045866;70;20198;-72
2022/06/24 01:37:16;;;;;;;13.32;5.40;;;;;;;20.38;67.49;92347.56;2048937;70;20334;-72
2022/06/24 01:39:42;;;;;;;14.93;5.40;;;;;;;20.35;67.89;92348.97;2049323;70;20252;-71
2022/06/24 01:42:08;;;;;;;13.25;5.07;;;;;;;20.42;67.61;92345.53;2045564;70;20150;-72
2022/06/24 01:44:34;;;;;;;12.63;5.35;;;;;;;20.53;66.75;92338.63;2044915;70;20147;-71
2022/06/24 01:47:01;;;;;;;12.32;5.18;;;;;;;20.48;66.77;92344.94;2048836;70;20149;-73
2022/06/24 01:49:26;;;;;;;15.65;5.57;;;;;;;20.43;66.63;92335.53;2048463;70;20186;-72
2022/06/24 01:51:54;;;;;;;12.90;5.85;;;;;;;20.51;66.16;92330.00;2048262;70;20261;-72
2022/06/24 01:54:20;;;;;;;16.85;5.43;;;;;;;20.42;66.58;92336.22;2044852;69;20608;-72
2022/06/24 01:56:46;;;;;;;11.43;5.13;;;;;;;20.33;66.30;92338.19;2048653;70;20150;-72
2022/06/24 01:59:14;;;;;;;18.90;5.65;;;;;;;20.54;65.69;92339.34;2048685;70;20166;-72
2022/06/24 02:01:40;;;;;;;12.40;5.03;;;;;;;20.40;67.14;92341.91;2048625;70;20150;-72
2022/06/24 02:04:06;;;;;;;13.32;5.57;;;;;;;20.51;66.81;92338.56;2048690;70;20155;-71
2022/06/24 02:06:32;;;;;;;12.60;5.20;;;;;;;20.60;65.64;92342.31;2048594;70;20599;-72
2022/06/24 02:08:58;;;;;;;15.55;5.20;;;;;;;20.07;67.95;92341.28;2048255;70;20151;-71
2022/06/24 02:14:09;;;;;;;12.68;4.85;;;;;;;20.35;66.90;92331.81;2047688;70;20571;-72
2022/06/24 02:16:38;;;;;;;13.57;4.80;;;;;;;20.44;66.59;92336.28;2042813;70;20539;-73
2022/06/24 02:19:04;;;;;;;15.38;5.57;;;;;;;20.42;65.75;92330.50;2047885;70;20135;-72
2022/06/24 02:21:30;;;;;;;17.40;5.22;;;;;;;20.59;65.41;92334.41;2045154;70;20150;-74
2022/06/24 02:23:56;;;;;;;12.38;5.03;;;;;;;20.56;65.99;92330.78;2047071;70;20539;-73
2022/06/24 02:26:23;;;;;;;15.35;5.32;;;;;;;20.72;64.28;92333.94;2041726;70;20671;-73
2022/06/24 02:28:48;;;;;;;11.32;4.93;;;;;;;20.64;65.58;92335.94;2048813;70;20181;-73
2022/06/24 02:31:14;;;;;;;25.27;6.07;;;;;;;20.59;66.72;92337.28;2048569;70;20551;-72
2022/06/24 02:33:40;;;;;;;11.18;5.13;;;;;;;20.37;66.37;92331.84;2045218;70;20150;-72
2022/06/24 02:36:06;;;;;;;12.30;6.03;;;;;;;20.35;66.51;92334.69;2048357;70;20653;-74
2022/06/24 02:38:34;;;;;;;14.02;5.50;;;;;;;20.49;66.72;92332.09;2047303;70;20221;-74
2022/06/24 02:41:00;;;;;;;16.40;5.70;;;;;;;20.49;66.60;92335.69;2045591;70;20151;-76
2022/06/24 02:43:34;;;;;;;14.27;5.28;;;;;;;20.48;66.96;92331.38;2046917;70;20143;-74
2022/06/24 02:46:08;;;;;;;14.00;5.50;;;;;;;20.57;66.70;92332.22;2045096;69;20178;-74
2022/06/24 02:48:35;;;;;;;11.15;5.32;;;;;;;20.52;67.77;92327.84;2044604;70;20186;-74
2022/06/24 02:51:02;;;;;;;16.48;5.53;;;;;;;20.60;67.63;92330.13;2046971;70;20227;-74
2022/06/24 02:53:29;;;;;;;11.68;5.63;;;;;;;20.53;67.71;92327.19;2048253;70;20512;-73
2022/06/24 02:55:57;;;;;;;14.73;5.55;;;;;;;20.28;67.94;92334.53;2048477;70;20233;-73
2022/06/24 02:58:23;;;;;;;14.20;5.47;;;;;;;20.36;67.71;92327.53;2048494;69;20170;-74
2022/06/24 03:00:49;;;;;;;12.95;4.75;;;;;;;20.51;68.13;92330.00;2048241;70;20143;-75
2022/06/24 03:03:19;;;;;;;11.38;5.13;;;;;;;20.60;66.67;92321.56;2047969;70;20204;-75
2022/06/24 03:05:46;;;;;;;16.33;5.07;;;;;;;20.65;65.77;92323.81;2048322;70;20615;-74
2022/06/24 03:08:13;;;;;;;10.75;4.75;;;;;;;20.59;67.61;92320.13;2047766;70;20150;-73
2022/06/24 03:10:39;;;;;;;11.68;4.53;;;;;;;20.76;66.02;92319.72;2048260;70;20159;-72
2022/06/24 03:13:05;;;;;;;17.38;5.07;;;;;;;20.60;67.63;92310.13;2048322;70;20161;-73
2022/06/24 03:15:32;;;;;;;13.88;5.90;;;;;;;20.55;65.28;92323.63;2045855;70;20202;-73
2022/06/24 03:17:58;;;;;;;16.65;6.03;;;;;;;20.37;65.33;92317.56;2045192;70;20638;-73
2022/06/24 03:20:24;;;;;;;15.20;5.93;;;;;;;20.38;65.24;92316.13;2046073;70;20224;-76
2022/06/24 03:22:50;;;;;;;14.90;5.32;;;;;;;20.62;63.82;92313.00;2047959;70;20194;-77
2022/06/24 03:25:16;;;;;;;15.35;5.40;;;;;;;20.51;66.27;92307.13;2048601;70;20173;-72
2022/06/24 03:27:42;;;;;;;16.10;6.57;;;;;;;20.68;64.17;92298.84;2045932;70;20256;-73
2022/06/24 03:30:09;;;;;;;19.95;5.55;;;;;;;20.65;63.87;92300.19;2047902;70;20191;-73
2022/06/24 03:32:35;;;;;;;16.15;6.13;;;;;;;20.46;64.94;92307.72;2048634;70;20245;-74
2022/06/24 03:35:01;;;;;;;15.75;5.75;;;;;;;20.36;65.92;92313.97;2048632;70;20143;-75
2022/06/24 03:37:31;;;;;;;15.05;5.78;;;;;;;20.61;65.13;92320.88;2049051;70;20212;-73
2022/06/24 03:39:57;;;;;;;15.75;5.63;;;;;;;20.62;66.23;92321.59;2048993;70;20151;-74
2022/06/24 03:42:23;;;;;;;16.88;5.97;;;;;;;20.52;67.02;92320.00;2046800;70;20685;-73
2022/06/24 03:44:49;;;;;;;14.48;6.10;;;;;;;20.65;65.35;92317.34;2048679;70;20142;-73
2022/06/24 03:47:14;;;;;;;14.85;5.68;;;;;;;20.65;65.49;92328.78;2049085;70;20147;-74
2022/06/24 03:49:40;;;;;;;15.35;5.80;;;;;;;20.63;66.66;92328.78;2045440;70;20159;-74
2022/06/24 03:52:06;;;;;;;14.35;5.60;;;;;;;20.61;67.49;92328.72;2045335;70;20162;-79
2022/06/24 03:54:32;;;;;;;14.43;5.53;;;;;;;20.62;66.36;92333.78;2048543;70;20510;-74
2022/06/24 03:56:58;;;;;;;11.13;4.80;;;;;;;20.68;65.85;92336.00;2045193;69;20166;-76
2022/06/24 03:59:23;;;;;;;12.68;5.60;;;;;;;20.67;66.92;92343.88;2048543;70;20185;-74
2022/06/24 04:01:49;;;;;;;10.30;4.63;;;;;;;20.78;65.80;92351.19;2048826;70;20619;-74
2022/06/24 04:04:15;;;;;;;15.43;5.40;;;;;;;20.73;67.04;92346.09;2049000;70;20652;-74
2022/06/24 04:06:40;;;;;;;13.90;4.72;;;;;;;20.74;68.39;92341.81;2048611;70;20154;-76
2022/06/24 04:09:06;;;;;;;10.75;4.78;;;;;;;20.78;66.92;92347.63;2045830;70;20130;-78
2022/06/24 04:11:32;;;;;;;15.23;5.57;;;;;;;20.65;66.68;92332.38;2047941;70;20539;-77
2022/06/24 04:14:01;;;;;;;14.27;6.10;;;;;;;20.37;68.10;92332.56;2046528;69;20580;-73
2022/06/24 04:16:27;;;;;;;13.35;5.18;;;;;;;20.56;68.52;92325.78;2045880;70;20147;-73
2022/06/24 04:18:53;;;;;;;15.18;4.85;;;;;;;20.60;69.02;92327.28;2047803;70;20642;-74
2022/06/24 04:21:18;;;;;;;10.85;5.00;;;;;;;20.69;68.94;92326.72;2048769;70;20229;-73
2022/06/24 04:23:45;;;;;;;15.50;5.35;;;;;;;20.71;67.69;92331.75;2048756;70;20147;-74
2022/06/24 04:26:12;;;;;;;16.00;6.82;;;;;;;20.48;68.33;92334.25;2048770;70;20142;-73
2022/06/24 04:28:39;;;;;;;14.02;5.63;;;;;;;20.65;67.67;92338.09;2048378;70;20474;-73
2022/06/24 04:31:05;;;;;;;15.75;5.28;;;;;;;20.71;66.41;92331.75;2048693;70;20161;-74
2022/06/24 04:33:30;;;;;;;15.85;5.22;;;;;;;20.72;67.74;92348.25;2048697;70;20150;-73
2022/06/24 04:35:56;;;;;;;15.27;5.40;;;;;;;20.74;67.39;92351.13;2048972;70;20594;-74
2022/06/24 04:38:22;;;;;;;14.10;4.90;;;;;;;20.75;68.18;92354.72;2048368;70;20186;-75
2022/06/24 04:40:48;;;;;;;12.00;5.38;;;;;;;20.76;68.32;92361.91;2048266;70;20587;-74
2022/06/24 04:43:13;;;;;;;18.60;5.15;;;;;;;20.64;69.06;92373.13;2048052;70;20186;-76
2022/06/24 04:45:39;;;;;;;11.05;5.43;;;;;;;20.68;66.49;92378.91;2048034;70;20151;-73
2022/06/24 04:48:05;;;;;;;14.07;5.30;;;;;;;20.77;66.83;92378.38;2047560;70;20165;-74
2022/06/24 04:50:32;;;;;;;12.23;5.90;;;;;;;20.72;68.49;92381.84;2045596;70;20147;-74
2022/06/24 04:52:58;;;;;;;14.15;5.68;;;;;;;20.69;69.09;92383.22;2047845;70;20206;-72
2022/06/24 04:55:24;;;;;;;11.63;5.40;;;;;;;20.79;68.40;92386.97;2048812;70;20584;-73
2022/06/24 04:57:49;;;;;;;14.60;6.03;;;;;;;20.74;69.34;92381.88;2048568;70;20138;-71
2022/06/24 05:00:15;;;;;;;17.65;5.72;;;;;;;20.81;68.34;92378.44;2048516;70;20151;-72
2022/06/24 05:02:41;;;;;;;13.13;5.63;;;;;;;20.72;70.33;92373.25;2048636;69;20246;-73
2022/06/24 05:05:11;;;;;;;13.05;5.45;;;;;;;20.75;70.53;92371.88;2048704;70;20620;-73
2022/06/24 05:07:38;;;;;;;15.85;5.43;;;;;;;20.85;69.91;92365.59;2045355;70;20178;-73
2022/06/24 05:10:05;;;;;;;15.18;5.63;;;;;;;20.87;69.20;92365.66;2048507;70;20166;-73
2022/06/24 05:12:30;;;;;;;14.23;5.88;;;;;;;20.93;69.92;92357.88;2048603;70;20615;-77
2022/06/24 05:14:56;;;;;;;12.35;5.10;;;;;;;21.01;68.47;92352.31;2048375;70;20143;-79
2022/06/24 05:17:26;;;;;;;15.75;5.78;;;;;;;21.11;67.99;92346.03;2048404;70;20186;-76
2022/06/24 05:19:52;;;;;;;13.30;5.50;;;;;;;21.06;68.62;92353.81;2048662;70;20175;-73
2022/06/24 05:22:18;;;;;;;18.23;6.07;;;;;;;20.80;68.45;92348.41;2048477;70;20675;-72
2022/06/24 05:24:44;;;;;;;14.85;5.60;;;;;;;20.42;70.82;92350.50;2048448;70;20559;-72
2022/06/24 05:27:10;;;;;;;12.50;6.28;;;;;;;20.73;69.80;92343.25;2048537;70;20147;-72
2022/06/24 05:29:35;;;;;;;13.73;5.50;;;;;;;21.04;65.84;92344.50;2048476;70;20146;-72
2022/06/24 05:32:01;;;;;;;15.43;5.90;;;;;;;20.99;66.77;92346.56;2048549;70;20683;-73
2022/06/24 05:34:27;;;;;;;14.65;5.03;;;;;;;21.12;66.77;92350.34;2045334;70;20166;-73
2022/06/24 05:36:52;;;;;;;12.60;5.35;;;;;;;21.13;66.82;92363.25;2045551;70;20153;-72
2022/06/24 05:39:18;;;;;;;9.75;5.18;;;;;;;21.10;67.57;92353.16;2045300;70;20532;-74
2022/06/24 05:41:44;;;;;;;13.02;5.50;;;;;;;21.20;65.57;92355.47;2048588;70;20175;-74
2022/06/24 05:44:10;;;;;;;13.43;5.68;;;;;;;21.23;68.22;92359.81;2048538;70;20178;-73
2022/06/24 05:46:36;;;;;;;12.05;5.47;;;;;;;21.25;68.24;92368.41;2048589;70;20468;-73
2022/06/24 05:49:02;;;;;;;16.83;6.18;;;;;;;21.21;67.96;92362.63;2048423;70;20595;-76
2022/06/24 05:51:28;;;;;;;15.02;5.90;;;;;;;21.26;67.96;92379.19;2048346;70;20143;-74
2022/06/24 05:56:39;;;;;;;11.50;5.70;;;;;;;21.27;67.10;92372.06;2048553;70;20139;-74
2022/06/24 05:59:04;;;;;;;12.48;5.40;;;;;;;21.39;67.70;92365.09;2048478;70;20586;-73
2022/06/24 06:01:30;;;;;;;11.70;5.32;;;;;;;21.41;67.61;92370.84;2048604;70;20182;-74
2022/06/24 06:03:56;;;;;;;14.20;5.50;;;;;;;21.54;64.17;92363.91;2048559;70;20150;-74
2022/06/24 06:06:23;;;;;;;15.15;5.85;;;;;;;21.59;66.13;92370.41;2048549;70;20166;-74
2022/06/24 06:08:49;;;;;;;12.85;5.78;;;;;;;21.60;66.00;92366.84;2048514;70;20142;-74
2022/06/24 06:11:20;;;;;;;13.90;5.63;;;;;;;21.70;65.50;92369.13;2048318;70;20646;-75
2022/06/24 06:13:48;;;;;;;11.75;5.57;;;;;;;21.70;65.95;92363.41;2048463;70;20147;-76
2022/06/24 06:16:15;;;;;;;13.00;5.38;;;;;;;21.76;64.89;92355.63;2048413;70;20158;-75
2022/06/24 06:18:40;;;;;;;13.00;5.55;;;;;;;21.81;63.64;92350.69;2048450;70;20150;-77
2022/06/24 06:21:08;;;;;;;14.45;5.88;;;;;;;21.73;64.47;92347.69;2048402;70;20158;-77
2022/06/24 06:23:35;;;;;;;10.88;5.13;;;;;;;21.42;66.14;92357.97;2042464;70;20615;-75
2022/06/24 06:26:03;;;;;;;11.43;5.00;;;;;;;21.70;65.76;92351.94;2048432;70;20142;-75
2022/06/24 06:28:29;;;;;;;14.50;5.07;;;;;;;21.93;63.92;92344.38;2048318;70;20127;-74
2022/06/24 06:30:54;;;;;;;10.18;4.93;;;;;;;22.07;64.43;92342.41;2048484;70;20317;-76
2022/06/24 06:33:20;;;;;;;12.88;5.72;;;;;;;22.04;64.14;92340.22;2048433;70;20158;-75
2022/06/24 06:35:47;;;;;;;13.73;5.43;;;;;;;21.96;63.71;92337.97;2048358;70;20174;-74
2022/06/24 06:38:13;;;;;;;9.95;4.57;;;;;;;22.13;63.25;92321.72;2048372;70;20204;-73
2022/06/24 06:40:39;;;;;;;11.63;4.90;;;;;;;22.02;63.66;92320.84;2045069;70;20592;-75
2022/06/24 06:43:06;;;;;;;11.32;5.40;;;;;;;21.44;65.67;92332.97;2048395;70;20146;-73
2022/06/24 06:45:36;;;;;;;11.13;5.00;;;;;;;21.66;64.30;92326.09;2048224;70;20661;-74
2022/06/24 06:48:03;;;;;;;13.80;5.20;;;;;;;21.64;64.23;92321.06;2048348;70;20134;-73
2022/06/24 06:50:29;;;;;;;13.68;5.82;;;;;;;21.53;65.88;92319.47;2048357;70;20150;-78
2022/06/24 06:52:55;;;;;;;13.20;6.55;;;;;;;21.55;65.45;92320.22;2048304;70;20181;-79
2022/06/24 06:55:21;;;;;;;12.20;6.55;;;;;;;21.67;66.46;92316.81;2048523;70;20512;-76
2022/06/24 06:57:47;;;;;;;13.82;5.40;;;;;;;21.85;64.14;92315.59;2048314;70;20258;-79
2022/06/24 07:00:14;;;;;;;17.63;6.07;;;;;;;21.58;66.78;92326.72;2048200;70;20155;-77
2022/06/24 07:02:40;;;;;;;13.65;5.43;;;;;;;22.08;63.17;92312.34;2048751;70;20134;-75
2022/06/24 07:05:07;;;;;;;15.95;5.97;;;;;;;22.33;64.52;92310.47;2048803;70;20138;-77
2022/06/24 07:07:33;;;;;;;11.20;4.97;;;;;;;22.43;64.36;92326.34;2045546;70;20143;-75
2022/06/24 07:09:59;;;;;;;12.00;6.00;;;;;;;22.50;63.62;92320.00;2048800;70;20142;-78
2022/06/24 07:12:26;;;;;;;14.88;5.88;;;;;;;22.11;64.81;92315.22;2048808;70;20170;-74
2022/06/24 07:14:52;;;;;;;13.73;5.15;;;;;;;22.58;62.32;92313.59;2048770;70;20547;-75
2022/06/24 07:17:20;;;;;;;10.27;5.03;;;;;;;22.69;62.49;92309.41;2048896;70;20600;-74
2022/06/24 07:19:46;;;;;;;12.65;5.20;;;;;;;22.86;62.57;92309.56;2048971;70;20151;-74
2022/06/24 07:22:13;;;;;;;10.20;5.05;;;;;;;22.95;61.06;92300.34;2048863;70;20220;-78
2022/06/24 07:24:40;;;;;;;9.65;4.30;;;;;;;23.25;59.61;92290.53;2048905;70;20234;-77
2022/06/24 07:27:09;;;;;;;12.43;3.80;;;;;;;23.44;59.02;92302.88;2048940;70;20149;-79
2022/06/24 07:29:36;;;;;;;8.80;4.07;;;;;;;23.62;58.54;92282.16;2048657;70;20670;-76
2022/06/24 07:32:06;;;;;;;14.52;3.88;;;;;;;23.63;58.24;92297.94;2048977;70;20138;-78
2022/06/24 07:34:33;;;;;;;7.55;3.03;;;;;;;22.96;59.07;92298.22;2048835;70;20226;-77
2022/06/24 07:37:00;;;;;;;14.48;3.70;;;;;;;23.48;58.95;92291.41;2048789;70;20238;-73
2022/06/24 07:39:27;;;;;;;11.27;3.10;;;;;;;23.38;58.53;92294.22;2048907;70;20515;-74
2022/06/24 07:41:53;;;;;;;11.68;2.97;;;;;;;23.31;56.42;92293.44;2048687;70;20235;-74
2022/06/24 07:44:20;;;;;;;11.40;3.10;;;;;;;23.58;57.41;92282.84;2048652;70;20607;-74
2022/06/24 07:46:45;;;;;;;15.00;3.58;;;;;;;23.81;57.49;92287.28;2048789;70;20181;-74
2022/06/24 07:49:11;;;;;;;9.88;3.22;;;;;;;23.73;56.50;92287.28;2048750;70;20518;-75
2022/06/24 07:51:37;;;;;;;9.75;2.85;;;;;;;23.97;56.83;92280.19;2048784;70;20193;-77
2022/06/24 07:54:05;;;;;;;9.07;3.13;;;;;;;23.78;56.90;92279.41;2048730;70;20161;-75
2022/06/24 07:59:16;;;;;;;11.57;3.00;;;;;;;24.12;55.41;92261.56;2048888;70;20135;-76
2022/06/24 08:01:42;;;;;;;10.48;2.90;;;;;;;24.39;55.88;92267.44;2045451;70;20145;-74
2022/06/24 08:04:08;;;;;;;11.52;3.45;;;;;;;24.09;54.57;92265.84;2048728;70;20772;-77
2022/06/24 08:06:39;;;;;;;6.03;3.03;;;;;;;24.41;54.17;92258.78;2048759;70;20194;-79
2022/06/24 08:09:05;;;;;;;8.30;3.25;;;;;;;24.11;53.33;92263.00;2048727;70;20131;-78
2022/06/24 08:11:31;;;;;;;8.18;3.08;;;;;;;23.61;54.32;92266.34;2048450;70;20159;-78
2022/06/24 08:13:58;;;;;;;9.75;3.20;;;;;;;23.73;53.37;92260.66;2048503;70;20212;-76
2022/06/24 08:16:23;;;;;;;10.43;3.10;;;;;;;24.18;53.90;92250.06;2048754;70;20604;-77
2022/06/24 08:18:50;;;;;;;8.05;2.83;;;;;;;24.89;53.41;92263.19;2048723;70;20139;-74
2022/06/24 08:21:16;;;;;;;7.28;2.72;;;;;;;24.81;51.95;92258.13;2048713;70;20174;-74
2022/06/24 08:23:42;;;;;;;8.07;2.83;;;;;;;24.73;51.91;92258.84;2048802;70;20241;-76
2022/06/24 08:26:07;;;;;;;9.10;2.90;;;;;;;24.85;51.77;92267.50;2048736;70;20206;-75
2022/06/24 08:28:33;;;;;;;8.25;2.63;;;;;;;24.77;51.46;92261.00;2048517;70;20143;-75
2022/06/24 08:30:59;;;;;;;7.65;2.88;;;;;;;24.77;50.40;92266.75;2048635;70;20592;-75
2022/06/24 08:33:25;;;;;;;6.43;2.95;;;;;;;24.92;51.29;92256.69;2048701;70;20162;-75
2022/06/24 08:35:51;;;;;;;8.77;2.95;;;;;;;25.05;51.13;92252.38;2048651;70;20138;-75
2022/06/24 08:38:17;;;;;;;6.22;2.63;;;;;;;24.58;52.33;92255.22;2048662;70;20206;-74
2022/06/24 08:40:46;;;;;;;8.80;3.03;;;;;;;24.99;52.40;92263.19;2048683;70;20155;-74
2022/06/24 08:43:12;;;;;;;8.30;2.70;;;;;;;24.53;52.61;92248.03;2048812;70;20139;-78
2022/06/24 08:45:38;;;;;;;7.28;2.70;;;;;;;24.65;52.72;92230.06;2048579;70;20526;-80
2022/06/24 08:48:10;;;;;;;6.90;3.15;;;;;;;24.29;54.29;92222.06;2048669;70;20236;-74
2022/06/24 08:50:36;;;;;;;9.57;3.20;;;;;;;23.67;56.64;92217.56;2045391;70;20158;-78
2022/06/24 08:53:08;;;;;;;10.30;2.80;;;;;;;23.69;55.64;92214.69;2048611;70;20242;-75
2022/06/24 08:55:40;;;;;;;7.38;2.60;;;;;;;24.55;54.03;92207.75;2048634;70;20162;-74
2022/06/24 08:58:08;;;;;;;7.50;2.30;;;;;;;24.90;53.40;92202.00;2048701;70;20162;-75
2022/06/24 09:00:33;;;;;;;5.40;2.40;;;;;;;24.95;53.29;92197.69;2048585;70;20151;-75
2022/06/24 09:02:59;;;;;;;5.95;2.67;;;;;;;25.26;52.42;92194.78;2048594;70;20157;-75
2022/06/24 09:05:26;;;;;;;6.93;2.95;;;;;;;25.20;52.43;92189.78;2048670;70;20149;-76
2022/06/24 09:08:07;;;;;;;9.00;2.70;;;;;;;25.05;50.44;92182.56;2048654;70;20139;-75
2022/06/24 09:10:34;;;;;;;7.90;2.53;;;;;;;25.08;50.45;92181.84;2048525;70;20154;-74
2022/06/24 09:13:00;;;;;;;7.60;2.95;;;;;;;24.37;51.82;92181.13;2048638;70;20212;-75
2022/06/24 09:15:26;;;;;;;6.10;2.50;;;;;;;25.16;52.71;92174.66;2048474;70;20154;-75
2022/06/24 09:17:54;;;;;;;7.95;3.00;;;;;;;25.69;51.13;92160.78;2048586;70;20158;-75
2022/06/24 09:20:26;;;;;;;6.60;2.80;;;;;;;25.66;48.83;92152.88;2048616;70;20155;-76
2022/06/24 09:23:02;;;;;;;10.23;2.83;;;;;;;26.41;49.60;92149.63;2048568;70;20155;-77
2022/06/24 09:25:41;;;;;;;9.40;2.80;;;;;;;26.83;48.93;92139.22;2048511;70;20169;-76
2022/06/24 09:28:06;;;;;;;6.20;2.20;;;;;;;27.20;48.37;92128.03;2048563;70;20162;-76
2022/06/24 09:30:36;;;;;;;6.28;2.63;;;;;;;27.05;45.21;92133.22;2048442;70;20493;-77
2022/06/24 09:33:02;;;;;;;7.82;2.40;;;;;;;27.92;46.77;92124.34;2048733;70;20150;-77
2022/06/24 09:35:28;;;;;;;6.93;2.03;;;;;;;27.66;45.15;92116.69;2048605;70;20154;-77
2022/06/24 09:37:54;;;;;;;7.22;2.42;;;;;;;27.96;44.62;92121.41;2048613;70;20171;-77
2022/06/24 09:40:22;;;;;;;6.13;2.40;;;;;;;27.98;44.61;92119.19;2048655;70;20155;-77
2022/06/24 09:43:09;;;;;;;11.70;2.40;;;;;;;28.55;44.17;92118.41;2048543;70;20143;-76
2022/06/24 09:45:52;;;;;;;6.78;2.10;;;;;;;29.12;42.41;92120.34;2048386;70;20677;-80
2022/06/24 09:48:38;;;;;;;9.27;2.10;;;;;;;29.46;41.25;92109.59;2048496;70;20604;-77
2022/06/24 09:51:05;;;;;;;5.47;2.00;;;;;;;29.74;42.41;92107.63;2048365;70;20175;-79
2022/06/24 09:53:35;;;;;;;5.10;2.17;;;;;;;29.54;39.69;92108.72;2048481;70;20528;-77
2022/06/24 09:56:02;;;;;;;6.25;1.88;;;;;;;29.98;37.37;92100.59;2048525;70;20639;-78
2022/06/24 09:58:30;;;;;;;6.95;2.15;;;;;;;30.49;39.45;92106.00;2048360;70;20238;-75
2022/06/24 10:00:56;;;;;;;7.78;2.78;;;;;;;29.80;39.23;92095.91;2048554;70;20659;-77
2022/06/24 10:03:22;;;;;;;7.22;2.03;;;;;;;29.04;39.12;92093.72;2048408;70;20149;-78
2022/06/24 10:05:51;;;;;;;4.60;1.90;;;;;;;30.31;37.22;92086.81;2048664;70;20177;-78
2022/06/24 10:08:22;;;;;;;7.32;1.80;;;;;;;31.12;38.44;92081.25;2048471;70;20149;-77
2022/06/24 10:10:54;;;;;;;7.07;1.95;;;;;;;31.17;38.44;92081.13;2048375;70;20220;-78
2022/06/24 10:13:24;;;;;;;8.98;1.77;;;;;;;31.24;35.52;92073.66;2048309;70;20674;-74
2022/06/24 10:15:55;;;;;;;6.57;2.05;;;;;;;30.82;34.09;92061.69;2048589;70;20604;-74
2022/06/24 10:18:28;;;;;;;5.88;1.90;;;;;;;30.62;35.01;92043.25;2048485;70;20138;-75
2022/06/24 10:20:59;;;;;;;8.02;1.80;;;;;;;31.53;33.97;92041.66;2048454;70;20153;-74
2022/06/24 10:23:38;;;;;;;6.50;1.70;;;;;;;32.31;34.80;92043.72;2048447;70;20500;-76
2022/06/24 10:26:21;;;;;;;6.15;1.70;;;;;;;32.62;34.20;92040.56;2048433;70;20540;-76
2022/06/24 10:28:59;;;;;;;6.35;1.85;;;;;;;33.33;32.86;92033.84;2048304;70;20142;-80
2022/06/24 10:31:54;;;;;;;9.07;2.00;;;;;;;33.12;31.18;92028.69;2048411;70;20151;-76
2022/06/24 10:34:22;;;;;;;7.05;2.05;;;;;;;33.77;30.70;92022.03;2047068;70;20149;-75
2022/06/24 10:37:12;;;;;;;4.47;1.70;;;;;;;32.55;32.82;92007.28;2048696;70;20162;-76
2022/06/24 10:39:49;;;;;;;7.75;1.80;;;;;;;33.37;32.72;92008.16;2049035;70;20147;-76
2022/06/24 10:42:15;;;;;;;8.93;1.90;;;;;;;34.46;31.64;92009.94;2048900;70;20651;-76
2022/06/24 10:44:54;;;;;;;5.63;2.00;;;;;;;34.36;30.91;92002.28;2048764;70;20150;-76
2022/06/24 10:47:19;;;;;;;8.88;1.83;;;;;;;34.56;30.30;92006.63;2048967;70;20209;-75
2022/06/24 10:50:01;;;;;;;5.07;2.00;;;;;;;35.34;29.05;92007.03;2049019;70;20147;-75
2022/06/24 10:52:51;;;;;;;5.95;1.70;;;;;;;34.29;29.34;91998.19;2048975;70;20158;-76
2022/06/24 10:55:29;;;;;;;4.10;1.70;;;;;;;34.05;29.91;91985.97;2048872;70;20141;-75
2022/06/24 10:57:56;;;;;;;9.82;2.13;;;;;;;33.48;30.90;91993.22;2048896;70;20174;-76
2022/06/24 11:00:25;;;;;;;4.30;1.58;;;;;;;31.52;32.09;91988.59;2048735;70;20147;-75
2022/06/24 11:02:57;;;;;;;6.15;1.80;;;;;;;31.81;32.76;91984.84;2048772;70;20154;-76
2022/06/24 11:05:26;;;;;;;9.48;2.03;;;;;;;31.72;32.87;91989.47;2048840;70;20146;-76
2022/06/24 11:07:52;;;;;;;5.28;1.77;;;;;;;31.86;32.79;91974.53;2048798;70;20240;-77
2022/06/24 11:10:20;;;;;;;5.95;1.83;;;;;;;32.12;33.61;91973.00;2048758;70;20154;-75
2022/06/24 11:12:54;;;;;;;6.45;2.00;;;;;;;31.34;33.56;91948.41;2048974;70;20629;-75
2022/06/24 11:15:39;;;;;;;6.80;1.83;;;;;;;31.40;34.66;91944.63;2048685;70;20539;-76
2022/06/24 11:18:08;;;;;;;4.55;2.00;;;;;;;31.03;34.24;91948.53;2048883;70;20167;-75
2022/06/24 11:20:42;;;;;;;5.85;1.80;;;;;;;30.79;36.13;91947.00;2048895;70;20677;-75
2022/06/24 11:23:10;;;;;;;8.38;1.80;;;;;;;29.56;36.53;91952.16;2048786;70;20142;-76
2022/06/24 11:25:38;;;;;;;6.10;1.98;;;;;;;30.59;36.21;91956.94;2048810;70;20138;-76
2022/06/24 11:28:04;;;;;;;7.78;1.58;;;;;;;30.70;35.99;91948.66;2048826;70;20166;-77
2022/06/24 11:30:30;;;;;;;8.95;1.70;;;;;;;32.84;31.93;91959.72;2048633;70;20146;-75
2022/06/24 11:32:58;;;;;;;5.68;1.77;;;;;;;32.74;32.77;91949.13;2047807;70;20224;-73
2022/06/24 11:35:26;;;;;;;8.55;2.13;;;;;;;33.88;30.29;91967.63;2045292;70;20159;-74
2022/06/24 11:37:56;;;;;;;7.82;1.80;;;;;;;34.32;30.92;91965.19;2048662;70;20226;-77
2022/06/24 11:40:26;;;;;;;6.75;2.22;;;;;;;31.40;33.87;91967.88;2048622;70;20130;-75